createdAt,value
2018-01-26T00:01:00.857Z,89.30
2018-01-26T00:03:29.495Z,102.93
2018-01-26T00:05:58.159Z,100.27
2018-01-26T00:08:26.162Z,96.73
2018-01-26T00:10:54.059Z,92.20
2018-01-26T00:13:22.742Z,93.23
2018-01-26T00:15:51.404Z,93.47
2018-01-26T00:18:19.250Z,88.10
2018-01-26T00:20:47.128Z,94.50
2018-01-26T00:23:15.026Z,93.27
2018-01-26T00:25:43.656Z,91.57
2018-01-26T00:28:11.705Z,94.97
2018-01-26T00:30:39.378Z,95.40
2018-01-26T00:33:07.023Z,94.77
2018-01-26T00:35:35.476Z,98.57
2018-01-26T00:38:03.178Z,89.33
2018-01-26T00:40:30.841Z,93.53
2018-01-26T00:42:58.543Z,93.00
2018-01-26T00:45:26.208Z,100.03
2018-01-26T00:47:53.916Z,92.63
2018-01-26T00:50:21.563Z,91.53
2018-01-26T00:52:50.028Z,91.87
2018-01-26T00:55:18.447Z,95.27
2018-01-26T00:57:46.120Z,96.40
2018-01-26T01:00:13.804Z,97.20
2018-01-26T01:02:41.458Z,101.23
2018-01-26T01:05:09.143Z,97.57
2018-01-26T01:07:36.796Z,89.83
2018-01-26T01:10:04.490Z,94.40
2018-01-26T01:12:32.950Z,107.80
2018-01-26T01:15:01.395Z,102.73
2018-01-26T01:17:29.055Z,95.90
2018-01-26T01:19:56.707Z,104.90
2018-01-26T01:22:24.367Z,102.87
2018-01-26T01:24:52.033Z,104.30
2018-01-26T01:27:19.689Z,96.60
2018-01-26T01:29:47.335Z,101.50
2018-01-26T01:32:14.991Z,99.20
2018-01-26T01:34:42.636Z,100.90
2018-01-26T01:37:11.097Z,98.67
2018-01-26T01:39:39.563Z,105.53
2018-01-26T01:42:07.214Z,104.37
2018-01-26T01:44:34.945Z,100.87
2018-01-26T01:47:02.625Z,107.67
2018-01-26T01:49:30.335Z,102.17
2018-01-26T01:51:58.818Z,98.97
2018-01-26T01:54:27.258Z,110.10
2018-01-26T01:56:54.904Z,117.33
2018-01-26T01:59:22.601Z,114.93
2018-01-26T02:01:51.047Z,108.77
2018-01-26T02:04:18.722Z,110.00
2018-01-26T02:06:46.435Z,105.57
2018-01-26T02:09:14.109Z,110.30
2018-01-26T02:11:41.788Z,114.37
2018-01-26T02:14:09.476Z,115.20
2018-01-26T02:16:37.131Z,104.50
2018-01-26T02:19:04.902Z,105.53
2018-01-26T02:21:32.692Z,117.23
2018-01-26T02:24:00.382Z,115.33
2018-01-26T02:26:28.048Z,115.43
2018-01-26T02:28:55.733Z,115.13
2018-01-26T02:31:23.486Z,119.60
2018-01-26T02:33:51.143Z,114.37
2018-01-26T02:36:18.850Z,114.23
2018-01-26T02:38:47.682Z,121.30
2018-01-26T02:41:15.375Z,121.97
2018-01-26T02:43:43.038Z,127.27
2018-01-26T02:46:10.689Z,120.53
2018-01-26T02:48:38.350Z,120.90
2018-01-26T02:51:06.007Z,119.13
2018-01-26T02:53:33.686Z,113.10
2018-01-26T02:56:01.358Z,110.97
2018-01-26T02:58:29.777Z,116.77
2018-01-26T03:00:57.446Z,122.00
2018-01-26T03:03:25.123Z,115.40
2018-01-26T03:05:52.979Z,125.10
2018-01-26T03:08:20.693Z,121.70
2018-01-26T03:10:49.145Z,123.03
2018-01-26T03:13:16.877Z,122.03
2018-01-26T03:15:44.749Z,119.23
2018-01-26T03:18:12.642Z,117.93
2018-01-26T03:20:41.091Z,107.33
2018-01-26T03:23:08.794Z,112.97
2018-01-26T03:25:37.233Z,105.10
2018-01-26T03:28:04.921Z,116.33
2018-01-26T03:30:32.622Z,109.80
2018-01-26T03:33:00.407Z,106.40
2018-01-26T03:35:28.117Z,124.27
2018-01-26T03:37:55.767Z,120.30
2018-01-26T03:40:23.475Z,116.30
2018-01-26T03:42:51.318Z,122.00
2018-01-26T03:45:19.202Z,116.33
2018-01-26T03:47:46.913Z,124.60
2018-01-26T03:50:14.637Z,116.03
2018-01-26T03:52:42.273Z,127.40
2018-01-26T03:55:09.960Z,122.30
2018-01-26T03:57:37.838Z,116.33
2018-01-26T04:00:05.555Z,123.43
2018-01-26T04:02:34.197Z,124.10
2018-01-26T04:05:01.874Z,127.40
2018-01-26T04:07:29.523Z,128.10
2018-01-26T04:09:57.386Z,123.37
2018-01-26T04:12:25.079Z,124.53
2018-01-26T04:14:53.505Z,120.67
2018-01-26T04:17:21.328Z,135.53
2018-01-26T04:19:49.209Z,115.13
2018-01-26T04:22:17.083Z,116.50
2018-01-26T04:24:44.754Z,119.03
2018-01-26T04:27:12.603Z,100.07
2018-01-26T04:29:40.368Z,105.97
2018-01-26T04:32:08.027Z,116.53
2018-01-26T04:34:35.754Z,113.87
2018-01-26T04:37:03.714Z,115.53
2018-01-26T04:39:32.157Z,111.23
2018-01-26T04:41:59.808Z,113.33
2018-01-26T04:44:27.485Z,116.60
2018-01-26T04:46:55.142Z,105.53
2018-01-26T04:49:22.799Z,102.87
2018-01-26T04:51:50.651Z,111.27
2018-01-26T04:54:18.427Z,104.47
2018-01-26T04:56:46.165Z,103.33
2018-01-26T04:59:13.835Z,105.87
2018-01-26T05:01:41.494Z,100.70
2018-01-26T05:04:09.158Z,101.27
2018-01-26T05:06:36.815Z,102.07
2018-01-26T05:09:04.562Z,115.67
2018-01-26T05:11:33.137Z,116.90
2018-01-26T05:14:01.066Z,106.90
2018-01-26T05:16:28.951Z,110.27
2018-01-26T05:18:57.391Z,103.70
2018-01-26T05:21:25.039Z,99.47
2018-01-26T05:23:52.744Z,103.90
2018-01-26T05:26:20.389Z,96.60
2018-01-26T05:28:48.207Z,93.23
2018-01-26T05:31:15.871Z,92.67
2018-01-26T05:33:43.510Z,91.40
2018-01-26T05:36:12.154Z,95.73
2018-01-26T05:38:39.845Z,98.77
2018-01-26T05:41:07.503Z,89.87
2018-01-26T05:43:35.373Z,100.77
2018-01-26T05:46:03.822Z,98.93
2018-01-26T05:48:31.722Z,93.63
2018-01-26T05:50:59.393Z,102.23
2018-01-26T05:53:27.830Z,100.10
2018-01-26T05:55:55.696Z,105.03
2018-01-26T05:58:23.558Z,96.83
2018-01-26T06:00:51.422Z,103.73
2018-01-26T06:03:19.321Z,106.00
2018-01-26T06:05:47.951Z,109.60
2018-01-26T06:08:16.580Z,107.13
2018-01-26T06:10:45.239Z,110.93
2018-01-26T06:13:13.165Z,107.33
2018-01-26T06:15:41.027Z,109.33
2018-01-26T06:18:09.014Z,100.23
2018-01-26T06:20:36.864Z,108.20
2018-01-26T06:23:04.724Z,98.53
2018-01-26T06:25:32.796Z,103.43
2018-01-26T06:28:00.516Z,112.43
2018-01-26T06:30:28.203Z,105.67
2018-01-26T06:32:56.638Z,105.73
2018-01-26T06:35:24.313Z,100.33
2018-01-26T06:37:51.958Z,100.83
2018-01-26T06:40:19.623Z,99.43
2018-01-26T06:42:48.110Z,96.20
2018-01-26T06:45:16.566Z,90.43
2018-01-26T06:47:44.228Z,96.00
2018-01-26T06:50:12.156Z,95.13
2018-01-26T06:52:39.978Z,87.07
2018-01-26T06:55:07.721Z,108.43
2018-01-26T06:57:35.376Z,92.37
2018-01-26T07:00:03.296Z,94.50
2018-01-26T07:02:31.728Z,97.87
2018-01-26T07:04:59.396Z,103.30
2018-01-26T07:07:27.056Z,113.70
2018-01-26T07:09:54.751Z,104.30
2018-01-26T07:12:22.408Z,107.90
2018-01-26T07:14:50.246Z,107.30
2018-01-26T07:17:18.136Z,107.67
2018-01-26T07:19:46.693Z,100.50
2018-01-26T07:22:14.574Z,118.83
2018-01-26T07:24:42.238Z,115.37
2018-01-26T07:27:09.885Z,111.37
2018-01-26T07:29:37.559Z,124.57
2018-01-26T07:32:05.222Z,109.83
2018-01-26T07:34:32.883Z,99.80
2018-01-26T07:37:00.555Z,109.93
2018-01-26T07:39:28.219Z,106.30
2018-01-26T07:41:56.635Z,97.93
2018-01-26T07:44:24.294Z,104.53
2018-01-26T07:46:51.966Z,105.97
2018-01-26T07:49:19.635Z,101.80
2018-01-26T07:51:47.462Z,92.00
2018-01-26T07:54:15.154Z,96.37
2018-01-26T07:56:43.017Z,105.83
2018-01-26T07:59:10.758Z,100.40
2018-01-26T08:01:38.409Z,93.10
2018-01-26T08:04:06.083Z,95.97
2018-01-26T08:06:33.749Z,96.67
2018-01-26T08:09:01.517Z,88.37
2018-01-26T08:11:29.239Z,91.47
2018-01-26T08:13:57.672Z,99.60
2018-01-26T08:16:25.306Z,97.40
2018-01-26T08:18:52.967Z,93.30
2018-01-26T08:21:20.635Z,90.33
2018-01-26T08:23:48.338Z,87.77
2018-01-26T08:26:17.492Z,92.50
2018-01-26T08:28:45.157Z,84.83
2018-01-26T08:31:12.832Z,103.40
2018-01-26T08:33:40.899Z,103.00
2018-01-26T08:36:08.598Z,99.57
2018-01-26T08:38:36.243Z,93.53
2018-01-26T08:41:03.903Z,94.63
2018-01-26T08:43:31.566Z,108.13
2018-01-26T08:45:59.235Z,92.70
2018-01-26T08:48:26.915Z,97.00
2018-01-26T08:50:55.339Z,95.50
2018-01-26T08:53:22.995Z,90.20
2018-01-26T08:55:50.734Z,93.53
2018-01-26T08:58:18.411Z,89.00
2018-01-26T09:00:46.091Z,88.17
2018-01-26T09:03:13.731Z,102.53
2018-01-26T09:05:41.843Z,96.20
2018-01-26T09:08:09.590Z,93.83
2018-01-26T09:10:37.244Z,96.77
2018-01-26T09:13:04.906Z,97.90
2018-01-26T09:15:32.581Z,91.47
2018-01-26T09:18:00.234Z,93.87
2018-01-26T09:20:27.886Z,83.83
2018-01-26T09:22:55.662Z,86.77
2018-01-26T09:25:23.821Z,90.80
2018-01-26T09:27:51.889Z,95.63
2018-01-26T09:30:19.551Z,91.63
2018-01-26T09:32:47.519Z,92.30
2018-01-26T09:35:15.240Z,90.13
2018-01-26T09:37:43.670Z,92.23
2018-01-26T09:40:11.335Z,98.00
2018-01-26T09:42:39.089Z,100.80
2018-01-26T09:45:06.780Z,117.10
2018-01-26T09:47:34.435Z,95.77
2018-01-26T09:50:02.077Z,101.20
2018-01-26T09:52:29.726Z,98.43
2018-01-26T09:54:57.764Z,108.70
2018-01-26T09:57:26.002Z,104.07
2018-01-26T09:59:54.124Z,96.33
2018-01-26T10:02:21.812Z,103.27
2018-01-26T10:04:49.560Z,104.07
2018-01-26T10:07:17.210Z,101.57
2018-01-26T10:09:44.867Z,99.50
2018-01-26T10:12:12.551Z,94.90
2018-01-26T10:14:40.487Z,100.90
2018-01-26T10:17:08.194Z,96.87
2018-01-26T10:19:35.869Z,103.20
2018-01-26T10:22:03.532Z,97.20
2018-01-26T10:24:31.181Z,99.40
2018-01-26T10:26:58.831Z,96.50
2018-01-26T10:29:26.477Z,93.27
2018-01-26T10:31:54.127Z,86.93
2018-01-26T10:34:21.796Z,92.33
2018-01-26T10:36:49.530Z,96.67
2018-01-26T10:39:17.195Z,86.77
2018-01-26T10:41:44.849Z,88.30
2018-01-26T10:44:12.575Z,90.33
2018-01-26T10:46:41.010Z,91.03
2018-01-26T10:49:08.677Z,86.27
2018-01-26T10:51:36.339Z,99.97
2018-01-26T10:54:03.983Z,89.33
2018-01-26T10:56:31.636Z,90.67
2018-01-26T10:58:59.777Z,92.30
2018-01-26T11:01:27.490Z,96.37
2018-01-26T11:03:55.145Z,107.87
2018-01-26T11:06:22.805Z,110.27
2018-01-26T11:08:50.542Z,103.17
2018-01-26T11:11:18.766Z,99.53
2018-01-26T11:13:46.485Z,98.47
2018-01-26T11:16:14.604Z,103.73
2018-01-26T11:18:42.810Z,99.30
2018-01-26T11:21:10.553Z,99.80
2018-01-26T11:23:38.978Z,103.63
2018-01-26T11:26:06.663Z,94.50
2018-01-26T11:28:34.302Z,94.40
2018-01-26T11:31:01.976Z,105.07
2018-01-26T11:33:29.650Z,106.20
2018-01-26T11:35:57.322Z,101.90
2018-01-26T11:38:24.989Z,108.73
2018-01-26T11:40:52.630Z,110.97
2018-01-26T11:43:20.324Z,110.93
2018-01-26T11:45:48.019Z,99.70
2018-01-26T11:48:15.667Z,103.47
2018-01-26T11:50:44.099Z,111.70
2018-01-26T11:53:11.759Z,105.07
2018-01-26T11:55:39.410Z,115.50
2018-01-26T11:58:07.104Z,103.63
2018-01-26T12:00:34.765Z,104.03
2018-01-26T12:03:02.426Z,108.50
2018-01-26T12:05:30.078Z,111.57
2018-01-26T12:07:57.732Z,116.27
2018-01-26T12:10:25.394Z,91.80
2018-01-26T12:12:53.144Z,98.23
2018-01-26T12:15:20.905Z,95.50
2018-01-26T12:17:48.554Z,101.03
2018-01-26T12:20:16.274Z,105.63
2018-01-26T12:22:44.693Z,95.83
2018-01-26T12:25:12.462Z,111.20
2018-01-26T12:27:40.182Z,100.90
2018-01-26T12:30:08.640Z,104.00
2018-01-26T12:32:37.065Z,108.00
2018-01-26T12:35:04.727Z,108.37
2018-01-26T12:37:32.408Z,111.33
2018-01-26T12:40:00.074Z,121.50
2018-01-26T12:42:27.822Z,114.10
2018-01-26T12:44:55.555Z,118.80
2018-01-26T12:47:23.194Z,113.10
2018-01-26T12:49:51.620Z,117.47
2018-01-26T12:52:19.322Z,107.97
2018-01-26T12:54:47.029Z,108.53
2018-01-26T12:57:14.686Z,105.73
2018-01-26T12:59:42.337Z,102.13
2018-01-26T13:02:10.405Z,102.83
2018-01-26T13:04:38.101Z,98.07
2018-01-26T13:07:05.769Z,108.37
2018-01-26T13:09:33.442Z,115.77
2018-01-26T13:12:01.284Z,110.90
2018-01-26T13:14:28.970Z,108.93
2018-01-26T13:16:56.676Z,106.90
2018-01-26T13:19:24.340Z,111.87
2018-01-26T13:21:52.878Z,119.63
2018-01-26T13:24:20.569Z,103.20
2018-01-26T13:26:49.010Z,112.37
2018-01-26T13:29:16.653Z,124.07
2018-01-26T13:31:44.317Z,115.33
2018-01-26T13:34:12.004Z,114.30
2018-01-26T13:36:39.694Z,125.57
2018-01-26T13:39:08.129Z,126.47
2018-01-26T13:41:35.799Z,128.07
2018-01-26T13:44:03.489Z,108.40
2018-01-26T13:46:31.928Z,121.83
2018-01-26T13:48:59.619Z,128.13
2018-01-26T13:51:28.100Z,112.47
2018-01-26T13:53:56.573Z,130.47
2018-01-26T13:56:25.019Z,124.33
2018-01-26T13:58:52.768Z,127.83
2018-01-26T14:01:20.458Z,125.83
2018-01-26T14:03:48.196Z,134.00
2018-01-26T14:06:15.907Z,130.57
2018-01-26T14:08:44.396Z,132.27
2018-01-26T14:11:12.906Z,117.83
2018-01-26T14:13:41.336Z,112.23
2018-01-26T14:16:09.129Z,116.97
2018-01-26T14:18:36.857Z,138.67
2018-01-26T14:21:04.611Z,131.57
2018-01-26T14:23:32.350Z,116.63
2018-01-26T14:26:00.025Z,131.23
2018-01-26T14:28:27.710Z,122.93
2018-01-26T14:30:56.151Z,124.17
2018-01-26T14:33:23.899Z,132.30
2018-01-26T14:35:51.585Z,127.20
2018-01-26T14:38:20.010Z,122.90
2018-01-26T14:40:47.793Z,128.80
2018-01-26T14:43:15.504Z,123.40
2018-01-26T14:45:43.350Z,136.17
2018-01-26T14:48:11.049Z,128.53
2018-01-26T14:50:39.488Z,120.37
2018-01-26T14:53:07.159Z,142.80
2018-01-26T14:55:34.853Z,133.13
2018-01-26T14:58:03.296Z,135.00
2018-01-26T15:00:30.977Z,138.33
2018-01-26T15:02:58.665Z,152.23
2018-01-26T15:05:26.349Z,143.33
2018-01-26T15:07:54.057Z,134.37
2018-01-26T15:10:21.744Z,128.17
2018-01-26T15:12:51.025Z,134.73
2018-01-26T15:15:18.849Z,133.23
2018-01-26T15:17:46.631Z,133.67
2018-01-26T15:20:14.406Z,137.63
2018-01-26T15:22:42.120Z,120.20
2018-01-26T15:25:10.559Z,121.60
2018-01-26T15:27:39.123Z,133.67
2018-01-26T15:30:06.773Z,137.47
2018-01-26T15:32:34.446Z,131.03
2018-01-26T15:35:02.158Z,131.37
2018-01-26T15:37:29.916Z,131.77
2018-01-26T15:39:57.617Z,126.73
2018-01-26T15:42:25.332Z,130.73
2018-01-26T15:44:53.748Z,120.77
2018-01-26T15:47:21.411Z,125.13
2018-01-26T15:49:49.924Z,122.17
2018-01-26T15:52:17.595Z,136.47
2018-01-26T15:54:46.048Z,112.63
2018-01-26T15:57:14.490Z,129.57
2018-01-26T15:59:42.188Z,127.43
2018-01-26T16:02:09.838Z,130.60
2018-01-26T16:04:37.562Z,128.70
2018-01-26T16:07:05.321Z,136.63
2018-01-26T16:09:33.028Z,134.17
2018-01-26T16:12:01.518Z,127.10
2018-01-26T16:14:30.120Z,126.67
2018-01-26T16:16:58.704Z,131.83
2018-01-26T16:19:28.111Z,141.27
2018-01-26T16:21:57.373Z,131.10
2018-01-26T16:24:25.986Z,124.70
2018-01-26T16:26:55.268Z,127.77
2018-01-26T16:29:23.733Z,134.70
2018-01-26T16:31:52.407Z,134.33
2018-01-26T16:34:20.914Z,143.80
2018-01-26T16:36:49.442Z,125.70
2018-01-26T16:39:17.893Z,138.33
2018-01-26T16:41:47.164Z,133.20
2018-01-26T16:44:15.662Z,154.97
2018-01-26T16:46:44.201Z,147.07
2018-01-26T16:49:12.715Z,143.03
2018-01-26T16:51:41.292Z,141.50
2018-01-26T16:54:09.887Z,139.77
2018-01-26T16:56:39.189Z,143.60
2018-01-26T16:59:08.467Z,146.53
2018-01-26T17:01:37.052Z,150.30
2018-01-26T17:04:05.567Z,145.87
2018-01-26T17:06:34.950Z,150.73
2018-01-26T17:09:04.425Z,147.30
2018-01-26T17:11:32.921Z,157.70
2018-01-26T17:14:01.512Z,141.00
2018-01-26T17:16:30.788Z,154.17
2018-01-26T17:18:59.359Z,144.83
2018-01-26T17:21:27.868Z,159.37
2018-01-26T17:23:56.446Z,146.60
2018-01-26T17:26:25.049Z,158.90
2018-01-26T17:28:54.355Z,141.57
2018-01-26T17:31:22.920Z,141.37
2018-01-26T17:33:52.215Z,147.83
2018-01-26T17:36:20.820Z,142.33
2018-01-26T17:38:49.499Z,138.17
2018-01-26T17:41:18.754Z,144.70
2018-01-26T17:43:47.327Z,130.87
2018-01-26T17:46:15.769Z,137.10
2018-01-26T17:48:44.331Z,139.23
2018-01-26T17:51:13.736Z,132.17
2018-01-26T17:53:43.017Z,130.30
2018-01-26T17:56:11.601Z,155.23
2018-01-26T17:58:40.198Z,138.53
2018-01-26T18:01:09.453Z,141.87
2018-01-26T18:03:37.954Z,136.60
2018-01-26T18:06:06.616Z,137.60
2018-01-26T18:08:35.115Z,138.90
2018-01-26T18:11:03.604Z,138.00
2018-01-26T18:13:32.381Z,143.73
2018-01-26T18:16:01.789Z,137.83
2018-01-26T18:18:30.398Z,133.13
2018-01-26T18:20:59.076Z,121.20
2018-01-26T18:23:28.362Z,133.40
2018-01-26T18:25:56.942Z,148.80
2018-01-26T18:28:25.501Z,139.97
2018-01-26T18:30:53.990Z,150.27
2018-01-26T18:33:22.583Z,141.70
2018-01-26T18:35:51.140Z,138.33
2018-01-26T18:38:19.654Z,144.20
2018-01-26T18:40:49.028Z,137.97
2018-01-26T18:43:17.629Z,138.07
2018-01-26T18:45:45.483Z,133.93
2018-01-26T18:48:13.210Z,141.13
2018-01-26T18:50:40.924Z,137.17
2018-01-26T18:53:09.472Z,138.80
2018-01-26T18:55:37.205Z,140.97
2018-01-26T18:58:04.950Z,138.83
2018-01-26T19:00:33.459Z,148.30
2018-01-26T19:03:01.193Z,131.23
2018-01-26T19:05:29.695Z,136.70
2018-01-26T19:07:57.435Z,136.13
2018-01-26T19:10:25.938Z,137.27
2018-01-26T19:12:53.686Z,137.23
2018-01-26T19:15:21.414Z,137.10
2018-01-26T19:17:49.789Z,145.10
2018-01-26T19:20:17.589Z,155.43
2018-01-26T19:22:46.048Z,141.33
2018-01-26T19:25:14.650Z,134.50
2018-01-26T19:27:42.399Z,128.93
2018-01-26T19:30:10.897Z,134.70
2018-01-26T19:32:38.578Z,131.57
2018-01-26T19:35:06.270Z,139.47
2018-01-26T19:37:33.997Z,138.37
2018-01-26T19:40:01.745Z,142.30
2018-01-26T19:42:29.423Z,141.10
2018-01-26T19:44:57.093Z,137.17
2018-01-26T19:47:24.819Z,135.00
2018-01-26T19:49:52.656Z,139.93
2018-01-26T19:52:20.355Z,140.60
2018-01-26T19:54:48.053Z,130.67
2018-01-26T19:57:16.452Z,130.73
2018-01-26T19:59:44.929Z,133.73
2018-01-26T20:02:13.520Z,139.67
2018-01-26T20:04:47.604Z,130.13
2018-01-26T20:07:30.445Z,136.20
2018-01-26T20:09:59.032Z,140.73
2018-01-26T20:12:27.594Z,133.70
2018-01-26T20:14:56.040Z,123.00
2018-01-26T20:17:24.678Z,127.10
2018-01-26T20:19:54.044Z,131.30
2018-01-26T20:22:22.565Z,144.97
2018-01-26T20:24:51.828Z,131.27
2018-01-26T20:27:19.613Z,126.40
2018-01-26T20:29:47.301Z,134.63
2018-01-26T20:32:19.674Z,144.20
2018-01-26T20:34:48.149Z,124.90
2018-01-26T20:37:16.636Z,145.23
2018-01-26T20:39:44.337Z,130.90
2018-01-26T20:42:12.048Z,142.17
2018-01-26T20:44:40.533Z,137.77
2018-01-26T20:47:09.261Z,135.40
2018-01-26T20:49:37.015Z,136.40
2018-01-26T20:52:04.755Z,139.03
2018-01-26T20:54:32.457Z,135.77
2018-01-26T20:57:00.228Z,129.67
2018-01-26T20:59:28.742Z,129.93
2018-01-26T21:01:57.219Z,134.70
2018-01-26T21:04:25.690Z,133.77
2018-01-26T21:06:53.396Z,128.70
2018-01-26T21:09:21.201Z,125.87
2018-01-26T21:11:48.921Z,131.23
2018-01-26T21:14:17.343Z,137.87
2018-01-26T21:16:45.133Z,142.60
2018-01-26T21:19:13.661Z,145.40
2018-01-26T21:21:41.383Z,138.00
2018-01-26T21:24:09.943Z,134.67
2018-01-26T21:26:38.465Z,128.40
2018-01-26T21:29:06.135Z,133.97
2018-01-26T21:31:33.864Z,133.97
2018-01-26T21:34:02.272Z,137.07
2018-01-26T21:36:29.937Z,130.07
2018-01-26T21:38:57.726Z,136.13
2018-01-26T21:41:25.362Z,147.77
2018-01-26T21:43:53.078Z,130.10
2018-01-26T21:46:21.483Z,133.47
2018-01-26T21:48:49.446Z,133.17
2018-01-26T21:51:17.118Z,123.57
2018-01-26T21:53:44.777Z,125.30
2018-01-26T21:56:12.464Z,132.60
2018-01-26T21:58:40.140Z,137.40
2018-01-26T22:01:07.789Z,127.07
2018-01-26T22:03:35.444Z,133.90
2018-01-26T22:06:08.799Z,133.03
2018-01-26T22:08:37.274Z,129.23
2018-01-26T22:11:05.706Z,142.80
2018-01-26T22:13:33.357Z,133.53
2018-01-26T22:16:01.020Z,134.50
2018-01-26T22:18:28.702Z,122.70
2018-01-26T22:20:56.360Z,126.17
2018-01-26T22:23:24.104Z,129.67
2018-01-26T22:25:51.767Z,141.73
2018-01-26T22:28:19.418Z,137.37
2018-01-26T22:30:47.086Z,142.63
2018-01-26T22:33:14.728Z,141.07
2018-01-26T22:35:42.430Z,135.83
2018-01-26T22:38:10.076Z,131.30
2018-01-26T22:40:37.724Z,131.80
2018-01-26T22:43:05.387Z,131.70
2018-01-26T22:45:33.022Z,132.37
2018-01-26T22:48:00.669Z,127.23
2018-01-26T22:50:29.406Z,122.37
2018-01-26T22:52:57.069Z,133.33
2018-01-26T22:55:24.757Z,121.30
2018-01-26T22:57:52.482Z,125.70
2018-01-26T23:00:20.223Z,129.20
2018-01-26T23:02:47.903Z,133.33
2018-01-26T23:05:15.646Z,122.27
2018-01-26T23:07:43.286Z,135.40
2018-01-26T23:10:11.750Z,134.40
2018-01-26T23:12:40.204Z,123.23
2018-01-26T23:15:07.878Z,131.07
2018-01-26T23:17:35.520Z,126.50
2018-01-26T23:20:03.192Z,135.90
2018-01-26T23:22:30.864Z,128.00
2018-01-26T23:24:59.277Z,135.57
2018-01-26T23:27:26.934Z,126.93
2018-01-26T23:29:54.586Z,125.60
2018-01-26T23:32:22.997Z,124.77
2018-01-26T23:34:50.668Z,123.97
2018-01-26T23:37:18.322Z,126.70
2018-01-26T23:39:45.986Z,128.27
2018-01-26T23:42:13.626Z,121.27
2018-01-26T23:44:41.279Z,134.13
2018-01-26T23:47:09.080Z,134.30
2018-01-26T23:49:36.733Z,121.40
2018-01-26T23:52:04.411Z,134.50
2018-01-26T23:54:32.074Z,129.07
2018-01-26T23:56:59.811Z,116.63
2018-01-26T23:59:27.485Z,121.07
